Time;durP1;ratioP1;P1;durP2;ratioP2;P2;SDS_P1;SDS_P2;PMS_P1;PMS_P2;Temp;Humidity;BMP_temperature;BMP_pressure;BME280_temperature;BME280_humidity;BME280_pressure;Samples;Min_cycle;Max_cycle;Signal;HPM_P1;HPM_P2
2022/06/22 00:02:10;;;;;;;23.70;20.15;;;23.50;80.30;;;;;;5079549;28;20038;-10
2022/06/22 00:04:51;;;;;;;23.80;18.60;;;23.50;80.20;;;;;;5078977;28;20431;-10
2022/06/22 00:07:27;;;;;;;25.52;17.55;;;23.50;79.70;;;;;;5079269;28;20024;-13
2022/06/22 00:10:13;;;;;;;24.73;18.33;;;23.50;79.60;;;;;;5079350;28;20020;-10
2022/06/22 00:12:40;;;;;;;21.13;17.35;;;23.40;79.20;;;;;;5079339;28;20032;-10
2022/06/22 00:15:23;;;;;;;23.23;17.38;;;23.40;78.80;;;;;;5078993;28;20485;-9
2022/06/22 00:17:49;;;;;;;20.75;15.73;;;23.40;78.70;;;;;;5076270;28;20028;-11
2022/06/22 00:20:24;;;;;;;18.63;16.13;;;23.40;78.50;;;;;;5075560;28;20017;-10
2022/06/22 00:22:57;;;;;;;23.92;16.65;;;23.40;78.30;;;;;;5076603;28;20032;-10
2022/06/22 00:25:35;;;;;;;22.40;15.65;;;23.40;78.40;;;;;;5076023;28;20090;-10
2022/06/22 00:28:28;;;;;;;17.33;14.45;;;23.40;78.60;;;;;;5076277;28;20035;-10
2022/06/22 00:31:23;;;;;;;20.05;14.68;;;23.30;78.40;;;;;;5076143;28;20016;-10
2022/06/22 00:34:11;;;;;;;22.20;16.48;;;23.30;78.60;;;;;;5075554;28;20036;-10
2022/06/22 00:36:39;;;;;;;20.08;15.23;;;23.30;78.80;;;;;;5075588;28;20056;-10
2022/06/22 00:39:20;;;;;;;20.08;15.85;;;23.30;78.20;;;;;;5074098;28;20062;-11
2022/06/22 00:41:51;;;;;;;20.25;14.73;;;23.30;78.30;;;;;;5075778;28;20063;-10
2022/06/22 00:44:19;;;;;;;18.45;13.90;;;23.30;78.00;;;;;;5075836;28;20032;-10
2022/06/22 00:46:56;;;;;;;19.30;14.50;;;23.30;77.80;;;;;;5075634;28;20415;-10
2022/06/22 00:49:23;;;;;;;20.10;14.32;;;23.30;77.70;;;;;;5075299;28;20028;-10
2022/06/22 00:51:51;;;;;;;16.77;12.48;;;23.20;77.50;;;;;;5074891;28;20553;-10
2022/06/22 00:54:26;;;;;;;16.98;13.30;;;23.20;77.40;;;;;;5075322;28;20107;-10
2022/06/22 00:57:00;;;;;;;19.02;14.23;;;23.20;77.50;;;;;;5073991;28;20024;-9
2022/06/22 00:59:38;;;;;;;19.67;14.38;;;23.10;77.60;;;;;;5075502;28;20031;-10
2022/06/22 01:02:28;;;;;;;20.80;15.32;;;23.00;77.80;;;;;;5074882;28;20025;-10
2022/06/22 01:04:58;;;;;;;24.42;15.70;;;23.00;78.60;;;;;;5075081;28;20099;-10
2022/06/22 01:07:34;;;;;;;16.20;12.85;;;23.00;78.20;;;;;;5075323;28;20028;-10
2022/06/22 01:10:12;;;;;;;16.90;12.45;;;22.90;78.20;;;;;;5074996;28;20029;-10
2022/06/22 01:12:52;;;;;;;17.23;11.27;;;22.90;78.10;;;;;;5074617;28;20032;-10
2022/06/22 01:15:35;;;;;;;18.90;11.02;;;22.90;77.70;;;;;;5075129;28;20132;-10
2022/06/22 01:18:22;;;;;;;18.98;10.38;;;22.80;77.40;;;;;;5075081;28;20023;-9
2022/06/22 01:21:09;;;;;;;14.90;9.35;;;22.80;76.90;;;;;;5074790;28;20032;-11
2022/06/22 01:23:54;;;;;;;18.02;8.75;;;22.80;76.20;;;;;;5074838;28;20379;-10
2022/06/22 01:26:38;;;;;;;11.75;7.95;;;22.80;74.90;;;;;;5074652;28;20028;-10
2022/06/22 01:29:21;;;;;;;15.55;8.13;;;22.70;75.10;;;;;;5074390;28;20029;-10
2022/06/22 01:32:06;;;;;;;14.07;8.05;;;22.70;74.60;;;;;;5074600;28;20074;-10
2022/06/22 01:34:39;;;;;;;12.55;7.22;;;22.70;74.20;;;;;;5074303;28;20020;-10
2022/06/22 01:37:12;;;;;;;14.23;7.00;;;22.70;73.30;;;;;;5074428;28;20078;-10
2022/06/22 01:39:37;;;;;;;14.00;7.00;;;22.70;73.60;;;;;;5074282;28;20420;-10
2022/06/22 01:42:21;;;;;;;13.45;6.57;;;22.70;73.40;;;;;;5074281;28;20024;-10
2022/06/22 01:44:52;;;;;;;;;;;22.70;73.10;;;;;;5074687;28;20107;-11
2022/06/22 01:47:26;;;;;;;15.05;6.97;;;22.60;73.00;;;;;;5074487;28;19909;-10
2022/06/22 01:50:02;;;;;;;10.85;6.05;;;22.60;72.90;;;;;;5074116;28;20029;-10
2022/06/22 01:52:45;;;;;;;14.07;6.43;;;22.60;72.90;;;;;;5073596;28;20119;-10
2022/06/22 01:55:27;;;;;;;10.05;6.22;;;22.60;73.20;;;;;;5074797;28;20040;-10
2022/06/22 01:58:04;;;;;;;12.85;6.75;;;22.50;73.00;;;;;;5074579;28;20097;-10
2022/06/22 02:00:30;;;;;;;12.02;6.68;;;22.50;73.40;;;;;;5074072;28;20052;-10
2022/06/22 02:03:24;;;;;;;11.90;6.50;;;22.40;73.60;;;;;;5073849;28;20023;-10
2022/06/22 02:09:27;;;;;;;13.82;6.88;;;22.30;73.80;;;;;;5052004;28;20044;-10
2022/06/22 02:12:18;;;;;;;13.82;6.85;;;22.30;73.80;;;;;;5051683;28;20477;-11
2022/06/22 02:14:51;;;;;;;10.15;5.85;;;22.20;73.70;;;;;;5051757;28;20505;-11
2022/06/22 02:17:21;;;;;;;9.38;5.80;;;22.20;73.60;;;;;;5052159;28;20033;-10
2022/06/22 02:20:19;;;;;;;9.95;5.47;;;22.20;73.60;;;;;;5051585;28;20057;-11
2022/06/22 02:22:47;;;;;;;9.68;5.57;;;22.10;73.90;;;;;;5047313;28;20040;-10
2022/06/22 02:25:15;;;;;;;8.70;5.82;;;22.00;73.60;;;;;;5051309;28;20567;-11
2022/06/22 02:27:41;;;;;;;11.82;5.88;;;22.00;73.60;;;;;;5051391;28;20029;-11
2022/06/22 02:30:08;;;;;;;12.27;6.50;;;22.00;73.70;;;;;;5034754;28;20032;-10
2022/06/22 02:32:41;;;;;;;11.25;6.20;;;21.90;73.80;;;;;;5050989;28;20124;-10
2022/06/22 02:35:10;;;;;;;9.73;5.82;;;21.90;74.00;;;;;;5051380;28;20104;-10
2022/06/22 02:37:45;;;;;;;16.17;6.93;;;21.80;74.10;;;;;;5051303;28;20029;-11
2022/06/22 02:40:25;;;;;;;10.63;5.70;;;21.80;74.30;;;;;;5050640;28;20033;-11
2022/06/22 02:45:38;;;;;;;9.60;5.75;;;21.70;74.60;;;;;;5073680;28;20040;-11
2022/06/22 02:48:22;;;;;;;11.38;6.30;;;21.60;74.60;;;;;;5073702;28;20028;-10
2022/06/22 02:51:00;;;;;;;12.48;5.95;;;21.60;74.90;;;;;;5073224;28;20046;-10
2022/06/22 02:53:36;;;;;;;10.45;5.53;;;21.50;75.40;;;;;;5073411;28;20040;-10
2022/06/22 02:56:11;;;;;;;12.07;6.00;;;21.50;75.10;;;;;;5073342;28;20029;-10
2022/06/22 02:58:38;;;;;;;13.80;5.65;;;21.40;75.20;;;;;;5073572;28;20074;-11
2022/06/22 03:01:27;;;;;;;12.35;5.60;;;21.40;75.10;;;;;;5073015;28;20032;-11
2022/06/22 03:03:57;;;;;;;9.95;5.15;;;21.40;75.50;;;;;;5073374;28;20078;-11
2022/06/22 03:06:28;;;;;;;9.40;4.72;;;21.30;75.50;;;;;;5073143;28;20071;-10
2022/06/22 03:08:57;;;;;;;12.95;5.53;;;21.20;75.50;;;;;;5072912;28;20032;-11
2022/06/22 03:11:24;;;;;;;9.85;5.22;;;21.20;75.70;;;;;;5072895;28;20036;-11
2022/06/22 03:13:59;;;;;;;11.15;5.30;;;21.20;75.80;;;;;;5072922;28;20082;-12
2022/06/22 03:16:29;;;;;;;10.05;4.80;;;21.20;75.90;;;;;;5072749;28;20065;-11
2022/06/22 03:19:00;;;;;;;8.05;4.55;;;21.10;75.70;;;;;;5073747;28;20063;-10
2022/06/22 03:21:27;;;;;;;8.82;4.22;;;21.10;75.70;;;;;;5072933;28;20543;-11
2022/06/22 03:24:19;;;;;;;10.68;5.10;;;21.10;75.70;;;;;;5072763;28;20097;-11
2022/06/22 03:26:54;;;;;;;8.45;4.93;;;21.10;76.20;;;;;;5070884;28;20033;-11
2022/06/22 03:29:33;;;;;;;11.27;5.28;;;21.00;75.80;;;;;;5073173;28;20024;-11
2022/06/22 03:32:02;;;;;;;10.15;4.55;;;20.90;76.20;;;;;;5073164;28;20040;-11
2022/06/22 03:34:34;;;;;;;11.07;4.60;;;20.90;75.80;;;;;;5072596;28;20096;-11
2022/06/22 03:37:09;;;;;;;9.88;4.15;;;20.90;75.80;;;;;;5073066;28;20024;-11
2022/06/22 03:39:39;;;;;;;11.50;4.47;;;20.90;76.00;;;;;;5072947;28;20474;-10
2022/06/22 03:42:13;;;;;;;9.88;4.15;;;20.90;75.90;;;;;;5072685;28;20036;-10
2022/06/22 03:44:49;;;;;;;10.57;4.38;;;20.90;75.90;;;;;;5073087;28;20040;-10
2022/06/22 03:47:26;;;;;;;9.43;4.20;;;20.90;76.00;;;;;;5072967;28;20028;-11
2022/06/22 03:50:05;;;;;;;10.13;3.97;;;20.80;75.90;;;;;;5072852;28;20071;-11
2022/06/22 03:52:49;;;;;;;7.32;3.88;;;20.90;76.00;;;;;;5072646;28;20059;-10
2022/06/22 03:55:24;;;;;;;8.98;4.60;;;20.90;75.90;;;;;;5076239;28;20055;-11
2022/06/22 03:57:54;;;;;;;8.07;4.15;;;20.90;76.20;;;;;;5076878;28;20020;-11
2022/06/22 04:00:22;;;;;;;9.55;4.07;;;20.90;76.60;;;;;;5075989;28;20423;-10
2022/06/22 04:02:48;;;;;;;7.60;4.57;;;20.90;76.50;;;;;;5076198;28;20519;-10
2022/06/22 04:05:21;;;;;;;7.38;3.60;;;20.90;76.60;;;;;;5076095;28;20059;-11
2022/06/22 04:07:49;;;;;;;11.52;4.82;;;20.90;76.30;;;;;;5076120;28;20017;-11
2022/06/22 04:10:36;;;;;;;11.15;4.45;;;21.00;76.60;;;;;;5075792;28;20033;-11
2022/06/22 04:13:06;;;;;;;10.38;4.35;;;21.00;77.20;;;;;;5076189;28;20071;-10
2022/06/22 04:15:43;;;;;;;11.05;4.25;;;21.10;76.50;;;;;;5076260;28;20447;-11
2022/06/22 04:18:16;;;;;;;8.20;4.07;;;21.10;76.20;;;;;;5076265;28;20029;-11
2022/06/22 04:20:54;;;;;;;7.47;3.92;;;21.20;75.80;;;;;;5076524;28;20016;-10
2022/06/22 04:23:29;;;;;;;10.10;4.18;;;21.20;75.60;;;;;;5075863;28;20044;-11
2022/06/22 04:26:00;;;;;;;9.68;4.28;;;21.30;75.50;;;;;;5075714;28;20473;-10
2022/06/22 04:28:29;;;;;;;11.15;4.47;;;21.40;75.50;;;;;;5075546;28;20115;-10
2022/06/22 04:30:57;;;;;;;9.95;4.25;;;21.40;75.40;;;;;;5074421;28;20082;-11
2022/06/22 04:33:58;;;;;;;8.20;3.80;;;21.40;75.30;;;;;;5075565;28;20028;-10
2022/06/22 04:36:57;;;;;;;9.52;4.05;;;21.50;75.00;;;;;;5053282;28;20031;-10
2022/06/22 04:39:31;;;;;;;7.00;3.83;;;21.70;75.10;;;;;;4994669;28;20045;-11
2022/06/22 04:42:01;;;;;;;8.98;4.15;;;21.90;74.80;;;;;;4994298;28;20042;-10
2022/06/22 04:44:33;;;;;;;11.27;4.68;;;21.90;74.50;;;;;;4993846;28;20077;-11
2022/06/22 04:47:10;;;;;;;8.70;3.90;;;22.10;74.70;;;;;;4994480;28;20499;-11
2022/06/22 04:49:48;;;;;;;11.07;4.47;;;22.20;74.50;;;;;;4994217;28;20022;-11
2022/06/22 04:52:48;;;;;;;8.68;4.30;;;22.30;74.10;;;;;;4993449;28;20050;-11
2022/06/22 04:55:19;;;;;;;7.85;4.25;;;22.40;74.00;;;;;;4992329;28;20046;-10
2022/06/22 04:57:49;;;;;;;11.10;4.72;;;22.40;74.00;;;;;;4993877;28;20031;-11
2022/06/22 05:00:20;;;;;;;12.63;4.90;;;22.50;73.80;;;;;;4993550;28;20457;-11
2022/06/22 05:02:49;;;;;;;11.73;5.47;;;22.60;73.80;;;;;;4993951;28;20043;-11
2022/06/22 05:05:22;;;;;;;9.75;4.90;;;22.70;74.90;;;;;;4993256;28;20125;-11
2022/06/22 05:08:06;;;;;;;12.88;4.80;;;22.70;74.20;;;;;;4993956;28;20039;-10
2022/06/22 05:10:43;;;;;;;11.25;4.63;;;22.70;74.60;;;;;;4993301;28;20034;-11
2022/06/22 05:13:22;;;;;;;11.60;4.95;;;22.80;73.70;;;;;;5014104;28;20112;-11
2022/06/22 05:15:52;;;;;;;13.82;4.85;;;22.80;73.60;;;;;;5068982;28;20043;-10
2022/06/22 05:18:24;;;;;;;14.25;5.63;;;22.90;73.40;;;;;;5074576;28;20016;-11
2022/06/22 05:21:00;;;;;;;13.00;5.25;;;22.90;73.10;;;;;;5073527;28;20025;-10
2022/06/22 05:23:28;;;;;;;15.65;5.55;;;22.90;72.80;;;;;;5074990;28;20025;-11
2022/06/22 05:25:57;;;;;;;13.60;5.80;;;23.00;73.10;;;;;;5074554;28;20112;-10
2022/06/22 05:28:26;;;;;;;18.38;6.60;;;23.10;73.50;;;;;;5074423;28;20023;-11
2022/06/22 05:31:00;;;;;;;13.38;6.10;;;23.20;72.50;;;;;;5074462;28;20490;-10
2022/06/22 05:33:27;;;;;;;13.27;5.57;;;23.20;71.60;;;;;;5074325;28;20046;-10
2022/06/22 05:36:04;;;;;;;14.13;5.45;;;23.40;71.80;;;;;;5074443;28;20542;-10
2022/06/22 05:38:33;;;;;;;13.65;5.88;;;23.50;71.40;;;;;;5074140;28;20025;-10
2022/06/22 05:41:04;;;;;;;10.40;4.75;;;23.70;71.20;;;;;;5074191;28;20481;-10
2022/06/22 05:43:32;;;;;;;11.38;5.50;;;23.80;70.40;;;;;;5074561;28;20032;-9
2022/06/22 05:46:02;;;;;;;10.52;5.13;;;23.90;69.90;;;;;;5074531;28;20595;-10
2022/06/22 05:48:31;;;;;;;11.77;5.00;;;24.10;69.80;;;;;;5072798;28;20484;-10
2022/06/22 05:51:21;;;;;;;12.90;5.15;;;24.20;69.50;;;;;;5074120;28;20029;-10
2022/06/22 05:53:53;;;;;;;10.52;5.13;;;24.40;69.00;;;;;;5064148;28;20049;-11
2022/06/22 05:56:51;;;;;;;10.70;4.90;;;24.40;68.80;;;;;;5073866;28;20028;-10
2022/06/22 05:59:22;;;;;;;11.73;5.03;;;24.50;68.30;;;;;;5074341;28;20052;-10
2022/06/22 06:01:53;;;;;;;12.55;4.60;;;24.50;68.10;;;;;;5073863;28;20028;-10
2022/06/22 06:04:57;;;;;;;12.40;5.10;;;24.50;68.20;;;;;;5074373;28;20016;-10
2022/06/22 06:08:01;;;;;;;12.65;5.03;;;24.60;68.20;;;;;;5074053;28;20017;-10
2022/06/22 06:10:33;;;;;;;17.10;5.10;;;24.60;67.80;;;;;;5072802;28;20508;-10
2022/06/22 06:13:20;;;;;;;9.47;4.97;;;24.60;67.70;;;;;;5073714;28;20124;-11
2022/06/22 06:15:51;;;;;;;9.35;4.05;;;24.60;68.00;;;;;;5073184;28;20262;-11
2022/06/22 06:18:20;;;;;;;8.23;4.25;;;24.70;67.90;;;;;;5073169;28;20027;-10
2022/06/22 06:20:50;;;;;;;12.50;5.07;;;24.80;67.60;;;;;;5073495;28;20082;-10
2022/06/22 06:23:20;;;;;;;10.50;4.18;;;24.80;67.50;;;;;;5073481;28;20020;-11
2022/06/22 06:29:20;;;;;;;12.10;4.70;;;25.00;67.10;;;;;;5074002;28;20071;-10
2022/06/22 06:31:55;;;;;;;11.90;4.80;;;25.20;66.60;;;;;;5073446;28;20396;-11
2022/06/22 06:34:27;;;;;;;11.23;4.82;;;25.40;66.40;;;;;;5073218;28;20043;-10
2022/06/22 06:37:16;;;;;;;10.93;4.35;;;25.40;65.70;;;;;;5073375;28;20492;-10
2022/06/22 06:39:45;;;;;;;10.30;4.32;;;25.60;65.30;;;;;;5073537;28;20059;-10
2022/06/22 06:42:21;;;;;;;13.57;4.50;;;25.60;64.80;;;;;;5073298;28;20020;-10
2022/06/22 06:44:50;;;;;;;9.25;4.47;;;25.70;64.60;;;;;;5073578;28;20044;-11
2022/06/22 06:47:36;;;;;;;11.77;4.60;;;25.80;64.30;;;;;;5073229;28;20548;-10
2022/06/22 06:50:23;;;;;;;10.90;4.20;;;25.90;64.00;;;;;;5073553;28;20024;-10
2022/06/22 06:53:04;;;;;;;11.00;4.47;;;26.10;63.60;;;;;;5073025;28;20051;-10
2022/06/22 06:55:51;;;;;;;13.00;4.40;;;26.20;63.00;;;;;;5073006;28;20539;-10
2022/06/22 06:58:20;;;;;;;13.48;5.03;;;26.40;62.20;;;;;;5073152;28;20115;-10
2022/06/22 07:00:48;;;;;;;9.48;4.05;;;26.50;61.50;;;;;;5073032;28;20061;-10
2022/06/22 07:03:38;;;;;;;12.35;4.88;;;26.70;61.30;;;;;;5073022;28;20502;-11
2022/06/22 07:06:04;;;;;;;9.65;4.43;;;26.90;59.50;;;;;;5073352;28;20043;-10
2022/06/22 07:08:36;;;;;;;9.23;4.47;;;27.10;59.80;;;;;;5072752;28;20025;-11
2022/06/22 07:11:14;;;;;;;10.82;4.93;;;27.30;59.40;;;;;;5073223;28;20029;-10
2022/06/22 07:13:49;;;;;;;13.40;6.45;;;27.40;59.20;;;;;;5073250;28;20040;-9
2022/06/22 07:16:20;;;;;;;12.27;5.13;;;27.50;58.60;;;;;;5072988;28;20099;-10
2022/06/22 07:18:55;;;;;;;14.82;6.50;;;27.30;59.10;;;;;;5073285;28;20052;-10
2022/06/22 07:21:35;;;;;;;17.63;6.63;;;27.20;59.40;;;;;;5072768;28;20480;-10
2022/06/22 07:24:16;;;;;;;14.25;6.55;;;27.20;59.40;;;;;;5073074;28;20492;-10
2022/06/22 07:26:54;;;;;;;16.02;6.82;;;27.10;59.80;;;;;;5074004;28;20029;-10
2022/06/22 07:30:02;;;;;;;14.48;5.78;;;27.10;60.00;;;;;;5076867;28;20039;-11
2022/06/22 07:32:48;;;;;;;17.38;7.18;;;27.20;60.00;;;;;;5076872;28;20037;-10
2022/06/22 07:35:15;;;;;;;19.17;6.38;;;27.40;59.60;;;;;;5076772;28;20027;-10
2022/06/22 07:37:52;;;;;;;14.25;6.47;;;27.50;59.30;;;;;;5077182;28;20059;-10
2022/06/22 07:40:23;;;;;;;12.38;6.10;;;27.70;58.90;;;;;;5076737;28;20508;-10
2022/06/22 07:42:51;;;;;;;15.00;6.00;;;27.80;58.50;;;;;;5077100;28;20028;-10
2022/06/22 07:45:20;;;;;;;10.68;5.47;;;27.90;58.40;;;;;;5076595;28;20017;-10
2022/06/22 07:48:06;;;;;;;13.50;6.80;;;27.90;58.40;;;;;;5076758;28;20017;-10
2022/06/22 07:50:44;;;;;;;14.10;6.93;;;28.00;57.90;;;;;;5076483;28;20400;-11
2022/06/22 07:53:27;;;;;;;16.92;6.93;;;28.10;57.60;;;;;;5076357;28;20488;-10
2022/06/22 07:56:03;;;;;;;;;;;28.20;57.80;;;;;;5076950;28;20470;-10
2022/06/22 07:58:37;;;;;;;20.52;7.70;;;28.20;57.60;;;;;;5076151;28;20360;-10
2022/06/22 08:01:11;;;;;;;16.40;7.00;;;28.30;57.90;;;;;;5076627;28;20017;-10
2022/06/22 08:03:49;;;;;;;15.93;6.68;;;28.30;57.50;;;;;;5076562;28;20051;-11
2022/06/22 08:06:23;;;;;;;17.25;7.90;;;28.30;57.60;;;;;;5076269;28;20021;-11
2022/06/22 08:08:57;;;;;;;14.98;7.25;;;28.40;57.80;;;;;;5076166;28;20115;-10
2022/06/22 08:11:41;;;;;;;18.75;7.35;;;28.40;57.60;;;;;;5075957;28;20366;-10
2022/06/22 08:14:10;;;;;;;;;;;28.40;57.60;;;;;;5076599;28;20112;-10
2022/06/22 08:16:48;;;;;;;16.02;7.05;;;28.30;57.90;;;;;;5075757;28;19949;-10
2022/06/22 08:19:15;;;;;;;13.63;6.82;;;28.20;58.40;;;;;;5076227;28;20067;-11
2022/06/22 08:21:46;;;;;;;16.25;7.53;;;28.10;58.60;;;;;;5075852;28;20030;-10
2022/06/22 08:24:16;;;;;;;14.75;7.32;;;28.00;59.00;;;;;;5075822;28;20052;-10
2022/06/22 08:26:42;;;;;;;16.63;8.00;;;27.90;58.90;;;;;;5075711;28;20077;-10
2022/06/22 08:29:09;;;;;;;19.38;7.68;;;27.90;59.00;;;;;;5076050;28;20515;-11
2022/06/22 08:31:53;;;;;;;11.98;6.93;;;27.80;59.20;;;;;;5075885;28;20020;-10
2022/06/22 08:34:29;;;;;;;15.45;7.90;;;27.70;59.40;;;;;;5075817;28;20033;-10
2022/06/22 08:37:14;;;;;;;12.77;7.95;;;27.70;59.50;;;;;;5075962;28;20025;-9
2022/06/22 08:39:57;;;;;;;17.05;8.77;;;27.60;59.80;;;;;;5074862;28;20020;-10
2022/06/22 08:42:33;;;;;;;13.45;8.90;;;27.50;59.90;;;;;;5075446;28;20066;-10
2022/06/22 08:45:11;;;;;;;17.20;9.88;;;27.50;60.00;;;;;;5075530;28;20112;-10
2022/06/22 08:47:46;;;;;;;24.75;9.93;;;27.50;59.80;;;;;;5075779;28;20547;-10
2022/06/22 08:50:17;;;;;;;21.40;10.05;;;27.50;59.90;;;;;;5075631;28;20115;-11
2022/06/22 08:53:18;;;;;;;15.57;9.13;;;27.50;60.20;;;;;;5074519;28;20090;-10
2022/06/22 08:56:17;;;;;;;18.92;10.05;;;27.40;60.60;;;;;;5075421;28;20039;-10
2022/06/22 08:59:02;;;;;;;15.60;9.93;;;27.30;61.00;;;;;;5075239;28;20028;-10
2022/06/22 09:01:57;;;;;;;16.60;9.30;;;27.20;61.50;;;;;;5075396;28;20086;-12
2022/06/22 09:04:56;;;;;;;20.33;10.60;;;27.10;62.20;;;;;;5074358;28;20035;-11
2022/06/22 09:07:52;;;;;;;16.42;10.15;;;26.90;64.00;;;;;;5075069;28;20024;-11
2022/06/22 09:10:51;;;;;;;19.27;10.57;;;26.70;64.70;;;;;;5072483;28;20036;-11
2022/06/22 09:13:38;;;;;;;18.13;10.32;;;26.40;66.80;;;;;;5062287;28;20052;-11
2022/06/22 09:16:37;;;;;;;14.15;9.75;;;26.30;66.70;;;;;;5072776;28;20036;-11
2022/06/22 09:19:22;;;;;;;15.68;10.70;;;26.20;67.40;;;;;;5072749;28;20021;-11
2022/06/22 09:22:00;;;;;;;16.77;10.20;;;26.00;67.60;;;;;;5072742;28;20036;-11
2022/06/22 09:24:46;;;;;;;16.58;9.95;;;25.90;68.70;;;;;;5072249;28;20052;-11
2022/06/22 09:27:17;;;;;;;19.90;10.38;;;25.80;69.80;;;;;;5072503;28;20033;-11
2022/06/22 09:30:04;;;;;;;16.52;10.35;;;25.70;69.20;;;;;;5072497;28;20060;-10
2022/06/22 09:32:48;;;;;;;17.60;10.77;;;25.70;69.30;;;;;;5072088;28;20044;-11
2022/06/22 09:35:48;;;;;;;17.80;10.90;;;25.80;69.30;;;;;;5072305;28;20128;-10
2022/06/22 09:38:32;;;;;;;17.67;11.25;;;25.90;69.20;;;;;;5072173;28;20025;-11
2022/06/22 09:41:32;;;;;;;18.25;10.73;;;25.90;68.70;;;;;;5072333;28;20062;-10
2022/06/22 09:44:16;;;;;;;19.70;10.57;;;26.00;68.50;;;;;;5072265;28;20021;-10
2022/06/22 09:46:44;;;;;;;;;;;26.00;68.00;;;;;;5073680;28;20112;-10
2022/06/22 09:49:41;;;;;;;13.93;9.35;;;26.30;67.00;;;;;;5072892;28;19909;-10
2022/06/22 09:52:40;;;;;;;15.80;9.68;;;26.50;66.80;;;;;;5073825;28;20045;-11
2022/06/22 09:58:52;;;;;;;16.58;10.30;;;27.40;65.20;;;;;;5074220;28;20034;-11
2022/06/22 10:01:30;;;;;;;17.73;11.65;;;27.80;62.30;;;;;;5073912;28;20391;-10
2022/06/22 10:04:23;;;;;;;20.48;13.50;;;28.20;61.60;;;;;;5074154;28;20024;-11
2022/06/22 10:06:55;;;;;;;18.85;11.77;;;28.60;60.20;;;;;;5074278;28;20032;-11
2022/06/22 10:09:20;;;;;;;20.17;11.90;;;28.90;59.90;;;;;;5074340;28;20028;-10
2022/06/22 10:12:16;;;;;;;20.30;11.50;;;29.20;57.60;;;;;;5073580;28;20437;-11
2022/06/22 10:15:11;;;;;;;16.08;9.85;;;29.40;57.60;;;;;;5074564;28;20361;-11
2022/06/22 10:17:55;;;;;;;18.27;10.70;;;29.50;56.90;;;;;;5073672;28;20477;-10
2022/06/22 10:20:27;;;;;;;13.70;9.05;;;29.80;57.20;;;;;;5073518;28;20056;-10
2022/06/22 10:23:05;;;;;;;15.52;9.02;;;30.00;54.50;;;;;;5073762;28;20025;-10
2022/06/22 10:25:52;;;;;;;14.40;8.55;;;30.10;54.10;;;;;;5073448;28;20039;-11
2022/06/22 10:28:36;;;;;;;13.55;9.15;;;30.20;54.00;;;;;;5073904;28;20355;-10
2022/06/22 10:31:20;;;;;;;13.93;8.43;;;30.30;53.20;;;;;;5073343;28;20090;-11
2022/06/22 10:34:19;;;;;;;14.13;8.35;;;30.40;54.10;;;;;;5073592;28;20029;-10
2022/06/22 10:37:03;;;;;;;15.38;8.63;;;30.40;53.90;;;;;;5073312;28;20575;-11
2022/06/22 10:39:55;;;;;;;14.88;8.95;;;30.50;53.10;;;;;;5073642;28;20032;-11
2022/06/22 10:45:48;;;;;;;15.40;8.85;;;30.50;52.90;;;;;;5073600;28;20523;-11
2022/06/22 10:48:44;;;;;;;16.20;7.88;;;30.50;53.10;;;;;;5073113;28;20016;-11
2022/06/22 10:51:49;;;;;;;10.75;6.72;;;30.50;53.10;;;;;;5073191;28;20052;-10
2022/06/22 10:54:49;;;;;;;12.13;7.22;;;30.50;52.90;;;;;;5069476;28;20037;-11
2022/06/22 10:57:43;;;;;;;14.98;6.95;;;30.40;52.70;;;;;;5073229;28;20484;-10
2022/06/22 11:00:22;;;;;;;11.32;7.03;;;30.30;52.40;;;;;;5072987;28;20120;-10
2022/06/22 11:03:26;;;;;;;13.15;7.15;;;30.10;52.90;;;;;;5072700;28;20024;-10
2022/06/22 11:06:00;;;;;;;10.93;7.55;;;30.00;53.00;;;;;;5073354;28;20048;-11
2022/06/22 11:08:38;;;;;;;14.13;7.43;;;30.00;52.60;;;;;;5073195;28;20103;-10
2022/06/22 11:11:09;;;;;;;12.93;6.90;;;29.90;52.90;;;;;;5072844;28;20055;-10
2022/06/22 11:13:35;;;;;;;15.38;7.15;;;29.80;52.30;;;;;;5072907;28;20493;-11
2022/06/22 11:16:11;;;;;;;13.00;7.00;;;29.70;52.00;;;;;;5073130;28;20031;-11
2022/06/22 11:18:52;;;;;;;9.65;6.75;;;29.70;52.60;;;;;;5072722;28;20070;-10
2022/06/22 11:21:52;;;;;;;14.63;7.20;;;29.60;53.30;;;;;;5072907;28;20029;-11
2022/06/22 11:24:27;;;;;;;13.65;7.20;;;29.80;53.10;;;;;;5072709;28;20036;-11
2022/06/22 11:33:17;;;;;;;14.20;7.25;;;31.00;50.20;;;;;;5072942;28;20071;-10
2022/06/22 11:35:59;;;;;;;11.52;6.65;;;31.90;48.90;;;;;;5073047;28;20074;-10
2022/06/22 11:39:05;;;;;;;13.25;6.25;;;32.60;46.30;;;;;;5072821;28;20108;-10
2022/06/22 11:41:55;;;;;;;12.43;6.50;;;32.80;45.80;;;;;;5072470;28;20024;-10
2022/06/22 11:44:36;;;;;;;13.48;6.78;;;32.90;45.80;;;;;;5072507;28;20464;-10
2022/06/22 11:47:19;;;;;;;12.32;6.55;;;32.80;45.10;;;;;;5072942;28;20024;-11
2022/06/22 11:50:17;;;;;;;11.27;6.07;;;32.70;46.50;;;;;;5072976;28;20492;-11
2022/06/22 11:53:01;;;;;;;11.75;5.90;;;32.50;46.10;;;;;;5070614;28;20569;-11
2022/06/22 11:55:30;;;;;;;14.48;6.97;;;32.50;46.20;;;;;;5072974;28;20028;-11
2022/06/22 11:58:33;;;;;;;12.82;6.55;;;32.60;47.20;;;;;;5072532;28;20040;-11
2022/06/22 12:01:37;;;;;;;13.35;6.80;;;32.70;46.70;;;;;;5072869;28;20036;-11
2022/06/22 12:04:21;;;;;;;;;;;32.90;46.90;;;;;;5073287;28;20051;-11
2022/06/22 12:07:12;;;;;;;9.80;5.80;;;33.10;45.20;;;;;;5072407;28;19904;-11
2022/06/22 12:10:12;;;;;;;11.60;5.50;;;33.40;46.10;;;;;;5072344;28;20491;-10
2022/06/22 12:12:58;;;;;;;12.80;6.32;;;33.90;45.30;;;;;;5072442;28;20035;-10
2022/06/22 12:15:45;;;;;;;11.73;5.50;;;34.50;42.30;;;;;;5075702;28;20397;-11
2022/06/22 12:18:30;;;;;;;12.15;6.25;;;35.20;41.50;;;;;;5076167;28;20112;-11
2022/06/22 12:21:08;;;;;;;13.40;6.32;;;35.30;40.60;;;;;;5075894;28;20031;-10
2022/06/22 12:23:43;;;;;;;11.80;6.30;;;35.20;40.40;;;;;;5075909;28;20032;-10
2022/06/22 12:26:12;;;;;;;10.48;5.60;;;34.90;41.10;;;;;;5075797;28;20039;-10
2022/06/22 12:28:41;;;;;;;13.02;6.22;;;34.70;41.80;;;;;;5074460;28;20120;-10
2022/06/22 12:31:21;;;;;;;9.93;5.78;;;34.50;42.10;;;;;;5076040;28;20444;-10
2022/06/22 12:34:18;;;;;;;11.02;6.30;;;34.30;42.60;;;;;;5075687;28;20063;-11
2022/06/22 12:36:48;;;;;;;9.75;5.68;;;34.30;42.90;;;;;;5075903;28;20025;-11
2022/06/22 12:39:45;;;;;;;10.10;6.22;;;34.20;42.90;;;;;;5075883;28;20028;-10
2022/06/22 12:42:28;;;;;;;8.95;5.75;;;34.20;42.80;;;;;;5075664;28;20032;-10
2022/06/22 12:45:12;;;;;;;10.65;5.43;;;34.20;43.40;;;;;;5075534;28;20029;-11
2022/06/22 12:48:20;;;;;;;8.23;5.90;;;34.30;43.50;;;;;;5076122;28;20055;-11
2022/06/22 12:51:26;;;;;;;13.07;6.38;;;34.40;42.00;;;;;;5075168;28;20033;-10
2022/06/22 12:54:14;;;;;;;10.63;5.95;;;34.50;42.30;;;;;;5075564;28;20036;-10
2022/06/22 12:57:16;;;;;;;11.65;5.40;;;34.90;41.70;;;;;;5075213;28;20024;-10
2022/06/22 13:00:01;;;;;;;11.50;5.85;;;34.90;41.70;;;;;;5074039;28;20020;-11
2022/06/22 13:02:31;;;;;;;10.18;5.40;;;35.00;41.00;;;;;;5075094;28;20062;-10
2022/06/22 13:05:08;;;;;;;8.00;5.80;;;35.10;40.70;;;;;;5075502;28;20480;-11
2022/06/22 13:07:42;;;;;;;10.15;5.60;;;35.30;40.50;;;;;;5075064;28;20095;-10
2022/06/22 13:10:14;;;;;;;12.07;6.25;;;35.40;40.10;;;;;;5075294;28;20048;-11
2022/06/22 13:12:50;;;;;;;;;;;35.50;40.30;;;;;;5075663;28;20040;-11
2022/06/22 13:15:33;;;;;;;15.35;5.68;;;35.60;40.60;;;;;;5075254;28;19904;-10
2022/06/22 13:18:24;;;;;;;9.73;5.40;;;35.90;40.10;;;;;;5074919;28;20029;-11
2022/06/22 13:21:08;;;;;;;9.40;5.78;;;36.00;39.00;;;;;;5075072;28;20440;-10
2022/06/22 13:24:00;;;;;;;8.50;5.40;;;36.10;38.90;;;;;;5075107;28;20484;-11
2022/06/22 13:26:55;;;;;;;10.23;5.80;;;36.10;39.20;;;;;;5074335;28;20111;-10
2022/06/22 13:29:35;;;;;;;8.80;5.68;;;36.40;37.50;;;;;;5075238;28;20032;-11
2022/06/22 13:32:06;;;;;;;13.20;5.68;;;36.50;37.90;;;;;;5074551;28;20032;-11
2022/06/22 13:34:46;;;;;;;20.95;6.07;;;36.80;37.60;;;;;;5074644;28;20108;-10
2022/06/22 13:37:42;;;;;;;16.42;5.70;;;36.80;37.10;;;;;;5074477;28;20496;-11
2022/06/22 13:40:27;;;;;;;10.25;5.35;;;36.70;36.30;;;;;;5074914;28;20031;-11
2022/06/22 13:43:18;;;;;;;9.65;5.13;;;36.40;37.20;;;;;;5074363;28;20480;-11
2022/06/22 13:45:53;;;;;;;12.82;5.28;;;35.90;38.00;;;;;;5074662;28;20082;-11
2022/06/22 13:48:37;;;;;;;8.70;5.15;;;35.60;38.90;;;;;;5074364;28;20059;-10
2022/06/22 13:51:22;;;;;;;10.05;5.15;;;35.40;39.00;;;;;;5074218;28;20048;-10
2022/06/22 13:53:53;;;;;;;10.27;5.25;;;35.30;39.20;;;;;;5074386;28;20067;-11
2022/06/22 13:56:52;;;;;;;12.15;6.03;;;35.30;39.80;;;;;;5073853;28;20103;-10
2022/06/22 14:00:02;;;;;;;13.40;5.57;;;35.40;39.20;;;;;;5052100;28;20533;-10
2022/06/22 14:02:34;;;;;;;11.13;5.93;;;35.40;39.10;;;;;;5029399;28;20574;-10
2022/06/22 14:05:12;;;;;;;13.52;5.38;;;35.30;39.30;;;;;;5051925;28;20036;-11